createdAt,value
2023-01-09T00:00:52.357Z,100297.19
2023-01-09T00:03:19.212Z,100286.94
2023-01-09T00:05:45.979Z,100273.94
2023-01-09T00:08:12.794Z,100273.13
2023-01-09T00:10:39.597Z,100279.38
2023-01-09T00:13:06.459Z,100286.94
2023-01-09T00:15:33.256Z,100283.63
2023-01-09T00:18:00.020Z,100281.84
2023-01-09T00:20:26.903Z,100273.13
2023-01-09T00:22:53.653Z,100265.59
2023-01-09T00:25:20.534Z,100273.13
2023-01-09T00:27:47.316Z,100275.84
2023-01-09T00:30:14.320Z,100256.97
2023-01-09T00:32:41.566Z,100248.34
2023-01-09T00:35:09.434Z,100251.63
2023-01-09T00:37:36.194Z,100248.22
2023-01-09T00:40:03.019Z,100250.69
2023-01-09T00:42:31.278Z,100246.59
2023-01-09T00:44:59.475Z,100250.00
2023-01-09T00:47:43.903Z,100249.03
2023-01-09T00:50:15.097Z,100243.03
2023-01-09T00:52:41.957Z,100230.41
2023-01-09T00:55:08.954Z,100232.78
2023-01-09T00:57:35.754Z,100234.66
2023-01-09T01:00:03.320Z,100240.56
2023-01-09T01:02:30.233Z,100231.34
2023-01-09T01:05:15.541Z,100232.88
2023-01-09T01:07:43.412Z,100237.97
2023-01-09T01:10:16.751Z,100231.84
2023-01-09T01:12:43.926Z,100229.25
2023-01-09T01:15:11.360Z,100237.38
2023-01-09T01:17:38.813Z,100239.28
2023-01-09T01:20:06.517Z,100247.06
2023-01-09T01:22:33.375Z,100246.09
2023-01-09T01:25:00.191Z,100240.34
2023-01-09T01:27:28.179Z,100242.34
2023-01-09T01:29:55.016Z,100242.94
2023-01-09T01:32:21.838Z,100242.09
2023-01-09T01:34:48.619Z,100235.97
2023-01-09T01:37:16.650Z,100236.69
2023-01-09T01:39:43.416Z,100230.06
2023-01-09T01:42:12.812Z,100237.63
2023-01-09T01:45:06.420Z,100233.38
2023-01-09T01:47:46.350Z,100224.06
2023-01-09T01:50:18.404Z,100225.22
2023-01-09T01:52:47.396Z,100225.94
2023-01-09T01:55:14.435Z,100222.41
2023-01-09T01:57:42.536Z,100227.59
2023-01-09T02:00:10.095Z,100215.69
2023-01-09T02:02:36.914Z,100230.06
2023-01-09T02:05:03.804Z,100218.28
2023-01-09T02:07:30.633Z,100218.16
2023-01-09T02:09:57.696Z,100208.59
2023-01-09T02:12:26.159Z,100208.00
2023-01-09T02:14:59.495Z,100209.78
2023-01-09T02:17:46.484Z,100212.25
2023-01-09T02:20:26.002Z,100217.34
2023-01-09T02:23:18.419Z,100212.16
2023-01-09T02:26:03.820Z,100211.31
2023-01-09T02:28:45.641Z,100215.69
2023-01-09T02:31:17.953Z,100207.06
2023-01-09T02:33:54.591Z,100193.88
2023-01-09T02:36:43.073Z,100210.63
2023-01-09T02:39:18.959Z,100202.81
2023-01-09T02:42:17.334Z,100200.59
2023-01-09T02:44:44.670Z,100205.66
2023-01-09T02:47:23.874Z,100214.28
2023-01-09T02:49:55.165Z,100206.75
2023-01-09T02:52:45.340Z,100217.72
2023-01-09T02:55:23.275Z,100211.81
2023-01-09T02:58:14.779Z,100207.44
2023-01-09T03:01:07.923Z,100202.25
2023-01-09T03:03:57.734Z,100186.22
2023-01-09T03:06:31.736Z,100193.06
2023-01-09T03:09:01.817Z,100195.50
2023-01-09T03:11:29.614Z,100194.00
2023-01-09T03:13:57.991Z,100194.00
2023-01-09T03:16:29.832Z,100187.28
2023-01-09T03:18:56.713Z,100196.72
2023-01-09T03:21:23.543Z,100197.53
2023-01-09T03:23:51.815Z,100204.97
2023-01-09T03:26:18.958Z,100197.44
2023-01-09T03:28:46.057Z,100191.41
2023-01-09T03:31:12.931Z,100188.91
2023-01-09T03:33:39.806Z,100192.34
2023-01-09T03:36:07.058Z,100177.03
2023-01-09T03:38:33.940Z,100173.59
2023-01-09T03:41:00.836Z,100167.72
2023-01-09T03:43:27.618Z,100169.34
2023-01-09T03:45:54.586Z,100177.13
2023-01-09T03:48:21.404Z,100177.97
2023-01-09T03:50:52.656Z,100176.91
2023-01-09T03:53:19.961Z,100181.28
2023-01-09T03:55:47.395Z,100178.78
2023-01-09T03:58:14.739Z,100177.97
2023-01-09T04:00:41.556Z,100185.66
2023-01-09T04:03:08.676Z,100176.06
2023-01-09T04:05:35.704Z,100172.75
2023-01-09T04:08:02.555Z,100178.66
2023-01-09T04:10:29.387Z,100171.00
2023-01-09T04:12:56.304Z,100166.06
2023-01-09T04:15:23.539Z,100174.16
2023-01-09T04:17:50.409Z,100169.34
2023-01-09T04:20:17.339Z,100167.47
2023-01-09T04:22:44.444Z,100169.09
2023-01-09T04:25:11.395Z,100159.78
2023-01-09T04:27:38.297Z,100174.31
2023-01-09T04:30:05.772Z,100176.75
2023-01-09T04:32:32.556Z,100172.75
2023-01-09T04:34:59.457Z,100183.72
2023-01-09T04:37:26.235Z,100180.31
2023-01-09T04:39:56.097Z,100177.03
2023-01-09T04:42:23.297Z,100176.47
2023-01-09T04:44:53.809Z,100177.84
2023-01-09T04:47:21.708Z,100176.06
2023-01-09T04:49:48.496Z,100165.34
2023-01-09T04:52:15.379Z,100171.00
2023-01-09T04:54:42.220Z,100174.31
2023-01-09T04:57:09.078Z,100175.38
2023-01-09T04:59:35.839Z,100169.59
2023-01-09T05:02:02.836Z,100179.72
2023-01-09T05:04:29.928Z,100181.28
2023-01-09T05:06:56.818Z,100180.31
2023-01-09T05:09:23.576Z,100170.06
2023-01-09T05:11:50.497Z,100166.66
2023-01-09T05:14:17.311Z,100156.38
2023-01-09T05:16:44.106Z,100162.28
2023-01-09T05:19:11.016Z,100146.00
2023-01-09T05:21:37.802Z,100140.94
2023-01-09T05:24:04.806Z,100145.03
2023-01-09T05:26:31.937Z,100147.53
2023-01-09T05:28:58.775Z,100148.81
2023-01-09T05:31:26.871Z,100145.88
2023-01-09T05:33:53.883Z,100142.44
2023-01-09T05:36:20.740Z,100136.44
2023-01-09T05:38:47.566Z,100136.31
2023-01-09T05:41:14.443Z,100124.53
2023-01-09T05:43:41.318Z,100128.63
2023-01-09T05:46:08.180Z,100126.03
2023-01-09T05:48:34.998Z,100125.13
2023-01-09T05:51:01.842Z,100130.31
2023-01-09T05:53:28.674Z,100132.06
2023-01-09T05:55:55.432Z,100122.63
2023-01-09T05:58:22.274Z,100121.94
2023-01-09T06:00:49.555Z,100126.75
2023-01-09T06:03:16.382Z,100120.28
2023-01-09T06:05:43.284Z,100126.88
2023-01-09T06:08:10.118Z,100117.81
2023-01-09T06:10:36.936Z,100116.16
2023-01-09T06:13:03.754Z,100121.66
2023-01-09T06:15:30.517Z,100101.34
2023-01-09T06:17:57.337Z,100114.16
2023-01-09T06:20:24.154Z,100106.09
2023-01-09T06:22:52.284Z,100107.19
2023-01-09T06:25:19.136Z,100102.09
2023-01-09T06:27:46.098Z,100105.41
2023-01-09T06:30:13.351Z,100102.69
2023-01-09T06:32:40.137Z,100088.56
2023-01-09T06:35:07.233Z,100092.53
2023-01-09T06:37:34.019Z,100089.28
2023-01-09T06:40:00.809Z,100100.34
2023-01-09T06:42:27.615Z,100095.28
2023-01-09T06:44:54.499Z,100087.50
2023-01-09T06:47:21.320Z,100097.75
2023-01-09T06:49:48.127Z,100093.41
2023-01-09T06:52:14.949Z,100093.50
2023-01-09T06:54:41.782Z,100087.88
2023-01-09T06:57:08.687Z,100092.78
2023-01-09T06:59:35.556Z,100087.59
2023-01-09T07:02:02.389Z,100096.09
2023-01-09T07:04:29.341Z,100101.44
2023-01-09T07:06:56.175Z,100107.88
2023-01-09T07:09:23.014Z,100097.75
2023-01-09T07:11:49.856Z,100085.84
2023-01-09T07:14:16.676Z,100096.66
2023-01-09T07:16:43.494Z,100088.88
2023-01-09T07:19:10.270Z,100087.25
2023-01-09T07:21:37.095Z,100089.47
2023-01-09T07:24:03.895Z,100085.22
2023-01-09T07:26:30.699Z,100092.19
2023-01-09T07:28:57.523Z,100095.38
2023-01-09T07:31:24.359Z,100090.16
2023-01-09T07:33:51.196Z,100097.56
2023-01-09T07:36:17.990Z,100084.72
2023-01-09T07:38:44.888Z,100088.72
2023-01-09T07:41:11.736Z,100082.97
2023-01-09T07:43:38.891Z,100081.75
2023-01-09T07:46:06.524Z,100079.25
2023-01-09T07:48:33.600Z,100080.94
2023-01-09T07:51:00.575Z,100078.19
2023-01-09T07:53:27.400Z,100079.25
2023-01-09T07:55:54.318Z,100074.41
2023-01-09T07:58:21.180Z,100080.97
2023-01-09T08:00:48.019Z,100072.25
2023-01-09T08:03:14.845Z,100066.81
2023-01-09T08:05:41.658Z,100060.22
2023-01-09T08:08:08.439Z,100067.38
2023-01-09T08:10:35.244Z,100069.84
2023-01-09T08:13:02.064Z,100063.00
2023-01-09T08:15:28.860Z,100066.28
2023-01-09T08:17:55.697Z,100067.97
2023-01-09T08:20:22.537Z,100058.38
2023-01-09T08:22:53.695Z,100061.31
2023-01-09T08:25:20.705Z,100061.56
2023-01-09T08:27:47.631Z,100059.63
2023-01-09T08:30:14.902Z,100051.84
2023-01-09T08:32:41.955Z,100052.31
2023-01-09T08:35:09.263Z,100056.28
2023-01-09T08:37:36.183Z,100060.50
2023-01-09T08:40:03.204Z,100056.84
2023-01-09T08:42:48.815Z,100064.38
2023-01-09T08:45:34.220Z,100053.69
2023-01-09T08:48:01.050Z,100053.28
2023-01-09T08:50:27.878Z,100057.41
2023-01-09T08:52:54.689Z,100059.34
2023-01-09T08:55:21.475Z,100050.69
2023-01-09T08:57:51.976Z,100058.63
2023-01-09T09:00:20.033Z,100059.59
2023-01-09T09:02:50.740Z,100077.38
2023-01-09T09:05:17.534Z,100076.66
2023-01-09T09:07:44.321Z,100068.44
2023-01-09T09:10:11.334Z,100068.19
2023-01-09T09:12:38.195Z,100069.03
2023-01-09T09:15:16.237Z,100054.50
2023-01-09T09:17:43.319Z,100053.44
2023-01-09T09:20:10.755Z,100048.50
2023-01-09T09:22:37.594Z,100051.66
2023-01-09T09:25:05.014Z,100052.47
2023-01-09T09:27:32.625Z,100049.38
2023-01-09T09:29:59.425Z,100050.31
2023-01-09T09:32:26.214Z,100041.31
2023-01-09T09:34:53.077Z,100042.94
2023-01-09T09:37:19.948Z,100035.31
2023-01-09T09:39:47.507Z,100038.84
2023-01-09T09:42:50.763Z,100041.88
2023-01-09T09:45:54.922Z,100041.06
2023-01-09T09:48:41.076Z,100043.78
2023-01-09T09:51:26.379Z,100044.72
2023-01-09T09:54:15.845Z,100044.88
2023-01-09T09:56:59.569Z,100045.50
2023-01-09T09:59:28.574Z,100053.03
2023-01-09T10:02:03.400Z,100030.16
2023-01-09T10:04:32.376Z,100040.56
2023-01-09T10:07:01.656Z,100035.34
2023-01-09T10:09:43.541Z,100045.38
2023-01-09T10:12:31.698Z,100037.59
2023-01-09T10:14:59.955Z,100040.31
2023-01-09T10:17:32.516Z,100032.50
2023-01-09T10:20:30.301Z,100039.13
2023-01-09T10:23:05.996Z,100035.56
2023-01-09T10:25:52.999Z,100038.84
2023-01-09T10:28:34.976Z,100028.31
2023-01-09T10:31:17.411Z,100029.00
2023-01-09T10:33:48.302Z,100017.94
2023-01-09T10:36:40.588Z,100003.97
2023-01-09T10:39:17.734Z,100006.72
2023-01-09T10:41:50.673Z,100011.56
2023-01-09T10:44:26.109Z,100004.84
2023-01-09T10:46:56.594Z,100012.38
2023-01-09T10:49:23.970Z,100014.72
2023-01-09T10:52:11.033Z,100010.63
2023-01-09T10:54:41.824Z,100018.28
2023-01-09T10:57:18.500Z,100015.03
2023-01-09T10:59:45.240Z,100012.97
2023-01-09T11:02:27.932Z,100008.72
2023-01-09T11:04:54.772Z,100000.25
2023-01-09T11:07:23.704Z,100004.63
2023-01-09T11:10:11.913Z,100008.59
2023-01-09T11:12:39.008Z,100006.66
2023-01-09T11:15:21.238Z,99990.81
2023-01-09T11:17:48.186Z,99996.41
2023-01-09T11:20:26.309Z,100000.91
2023-01-09T11:22:55.216Z,99984.50
2023-01-09T11:25:23.660Z,99972.63
2023-01-09T11:28:16.779Z,99994.22
2023-01-09T11:30:54.785Z,99990.13
2023-01-09T11:33:26.258Z,99989.72
2023-01-09T11:36:19.602Z,99987.84
2023-01-09T11:38:59.395Z,99978.50
2023-01-09T11:41:31.140Z,99975.78
2023-01-09T11:43:58.718Z,99974.84
2023-01-09T11:46:39.835Z,99974.94
2023-01-09T11:49:13.712Z,99988.66
2023-01-09T11:51:40.593Z,99974.41
2023-01-09T11:54:13.482Z,99978.63
2023-01-09T11:56:40.367Z,99965.22
2023-01-09T11:59:15.323Z,99969.72
2023-01-09T12:02:16.258Z,99975.78
2023-01-09T12:04:54.531Z,99975.22
2023-01-09T12:07:24.290Z,99977.94
2023-01-09T12:10:10.381Z,99973.00
2023-01-09T12:12:40.734Z,99970.09
2023-01-09T12:15:37.717Z,99969.16
2023-01-09T12:18:29.415Z,99974.72
2023-01-09T12:21:14.229Z,99961.88
2023-01-09T12:23:59.567Z,99965.03
2023-01-09T12:26:52.166Z,99959.28
2023-01-09T12:29:38.087Z,99965.31
2023-01-09T12:32:27.595Z,99962.00
2023-01-09T12:35:31.367Z,99964.47
2023-01-09T12:41:23.123Z,99962.84
2023-01-09T12:44:01.703Z,99956.94
2023-01-09T12:46:35.806Z,99958.03
2023-01-09T12:49:21.234Z,99959.00
2023-01-09T12:52:09.479Z,99955.69
2023-01-09T12:54:54.808Z,99957.47
2023-01-09T12:57:39.161Z,99946.78
2023-01-09T13:00:15.151Z,99952.69
2023-01-09T13:02:42.835Z,99942.44
2023-01-09T13:05:16.990Z,99932.56
2023-01-09T13:07:46.877Z,99933.22
2023-01-09T13:10:38.838Z,99931.84
2023-01-09T13:13:38.489Z,99932.56
2023-01-09T13:16:06.814Z,99921.47
2023-01-09T13:18:41.297Z,99918.44
2023-01-09T13:21:08.256Z,99912.28
2023-01-09T13:23:53.753Z,99926.81
2023-01-09T13:26:29.078Z,99916.66
2023-01-09T13:28:59.935Z,99923.38
2023-01-09T13:31:48.718Z,99924.31
2023-01-09T13:34:22.483Z,99914.91
2023-01-09T13:36:54.512Z,99915.16
2023-01-09T13:39:40.715Z,99917.63
2023-01-09T13:42:26.629Z,99923.50
2023-01-09T13:44:54.815Z,99910.91
2023-01-09T13:47:27.864Z,99927.16
2023-01-09T13:50:00.005Z,99918.81
2023-01-09T13:52:39.240Z,99928.03
2023-01-09T13:55:11.868Z,99921.31
2023-01-09T13:57:39.826Z,99926.63
2023-01-09T14:00:12.878Z,99942.19
2023-01-09T14:02:39.682Z,99931.81
2023-01-09T14:05:11.657Z,99916.22
2023-01-09T14:07:49.385Z,99927.84
2023-01-09T14:10:26.950Z,99929.63
2023-01-09T14:12:55.024Z,99922.47
2023-01-09T14:15:44.956Z,99932.47
2023-01-09T14:18:31.279Z,99930.00
2023-01-09T14:20:59.648Z,99936.97
2023-01-09T14:23:53.350Z,99932.88
2023-01-09T14:26:44.498Z,99932.03
2023-01-09T14:29:29.673Z,99930.38
2023-01-09T14:32:21.445Z,99939.03
2023-01-09T14:35:00.826Z,99930.78
2023-01-09T14:37:27.796Z,99935.16
2023-01-09T14:39:54.599Z,99931.84
2023-01-09T14:42:25.945Z,99930.22
2023-01-09T14:44:53.839Z,99940.75
2023-01-09T14:47:42.397Z,99944.84
2023-01-09T14:50:11.902Z,99943.19
2023-01-09T14:52:40.655Z,99936.63
2023-01-09T14:55:34.718Z,99940.03
2023-01-09T14:58:21.536Z,99945.94
2023-01-09T15:00:51.464Z,99935.91
2023-01-09T15:03:18.361Z,99946.03
2023-01-09T15:05:45.791Z,99941.25
2023-01-09T15:08:16.858Z,99945.47
2023-01-09T15:10:44.519Z,99943.03
2023-01-09T15:13:14.835Z,99947.00
2023-01-09T15:15:46.615Z,99953.84
2023-01-09T15:18:20.516Z,99940.69
2023-01-09T15:20:47.319Z,99950.00
2023-01-09T15:23:22.987Z,99949.75
2023-01-09T15:25:49.873Z,99949.44
2023-01-09T15:28:32.120Z,99959.28
2023-01-09T15:31:16.200Z,99948.47
2023-01-09T15:33:44.660Z,99956.25
2023-01-09T15:36:20.360Z,99952.44
2023-01-09T15:38:47.537Z,99960.50
2023-01-09T15:41:59.160Z,99967.91
2023-01-09T15:44:27.407Z,99970.38
2023-01-09T15:46:57.997Z,99970.75
2023-01-09T15:49:24.834Z,99970.50
2023-01-09T15:51:51.775Z,99968.97
2023-01-09T15:54:23.637Z,99967.91
2023-01-09T15:56:50.436Z,99967.34
2023-01-09T15:59:29.625Z,99960.50
2023-01-09T16:02:23.934Z,99968.16
2023-01-09T16:04:50.914Z,99966.63
2023-01-09T16:07:20.127Z,99972.25
2023-01-09T16:09:49.053Z,99962.41
2023-01-09T16:12:23.764Z,99961.59
2023-01-09T16:14:52.818Z,99969.25
2023-01-09T16:17:20.255Z,99974.44
2023-01-09T16:19:51.530Z,99981.25
2023-01-09T16:22:28.514Z,99986.19
2023-01-09T16:24:59.334Z,99972.91
2023-01-09T16:27:27.334Z,99983.34
2023-01-09T16:29:57.976Z,99980.31
2023-01-09T16:32:30.196Z,99987.28
2023-01-09T16:35:07.673Z,99987.97
2023-01-09T16:37:34.656Z,99992.91
2023-01-09T16:40:24.254Z,99993.72
2023-01-09T16:43:00.811Z,99981.25
2023-01-09T16:45:29.881Z,99989.59
2023-01-09T16:47:58.154Z,99977.84
2023-01-09T16:50:25.212Z,99980.91
2023-01-09T16:52:52.408Z,99976.78
2023-01-09T16:55:19.200Z,99980.31
2023-01-09T16:57:45.980Z,99982.66
2023-01-09T17:00:19.973Z,99983.59
2023-01-09T17:02:46.986Z,99986.19
2023-01-09T17:05:13.949Z,99977.28
2023-01-09T17:07:40.777Z,99987.84
2023-01-09T17:10:16.102Z,99991.78
2023-01-09T17:12:42.833Z,99984.00
2023-01-09T17:15:10.600Z,99988.22
2023-01-09T17:17:37.388Z,99999.06
2023-01-09T17:20:07.624Z,99993.16
2023-01-09T17:22:34.379Z,99996.34
2023-01-09T17:25:19.537Z,99998.94
2023-01-09T17:28:04.788Z,99986.34
2023-01-09T17:30:31.586Z,99993.97
2023-01-09T17:32:58.492Z,99990.72
2023-01-09T17:35:25.286Z,99999.19
2023-01-09T17:37:52.164Z,100002.47
2023-01-09T17:40:22.991Z,99998.22
2023-01-09T17:42:49.865Z,99974.59
2023-01-09T17:45:16.643Z,99991.63
2023-01-09T17:47:43.440Z,100002.16
2023-01-09T17:50:17.721Z,100004.25
2023-01-09T17:52:44.449Z,100007.94
2023-01-09T17:55:11.315Z,100012.97
2023-01-09T17:57:38.156Z,100008.88
2023-01-09T18:00:06.543Z,100018.06
2023-01-09T18:02:33.525Z,100007.78
2023-01-09T18:05:00.459Z,100009.69
2023-01-09T18:07:27.320Z,100007.22
2023-01-09T18:09:54.086Z,100006.97
2023-01-09T18:12:20.820Z,100006.28
2023-01-09T18:14:48.008Z,100009.69
2023-01-09T18:17:14.829Z,100002.97
2023-01-09T18:19:41.667Z,100011.47
2023-01-09T18:22:08.513Z,100009.69
2023-01-09T18:24:35.414Z,100016.38
2023-01-09T18:27:02.193Z,100010.53
2023-01-09T18:29:29.041Z,100008.03
2023-01-09T18:31:55.963Z,100008.75
2023-01-09T18:34:22.803Z,100010.38
2023-01-09T18:36:49.763Z,100011.91
2023-01-09T18:39:16.706Z,99994.38
2023-01-09T18:41:43.524Z,100006.00
2023-01-09T18:44:10.389Z,100011.19
2023-01-09T18:46:38.840Z,100015.56
2023-01-09T18:49:05.790Z,100013.78
2023-01-09T18:51:34.019Z,100012.41
2023-01-09T18:54:00.932Z,100024.06
2023-01-09T18:56:27.755Z,100023.09
2023-01-09T18:58:56.739Z,100006.00
2023-01-09T19:01:23.753Z,100008.75
2023-01-09T19:03:50.614Z,100011.09
2023-01-09T19:06:17.420Z,100008.75
2023-01-09T19:08:44.365Z,100018.75
2023-01-09T19:11:11.273Z,100013.78
2023-01-09T19:13:38.154Z,100015.47
2023-01-09T19:16:05.731Z,100018.75
2023-01-09T19:18:37.458Z,100018.97
2023-01-09T19:21:10.460Z,100021.47
2023-01-09T19:23:37.258Z,100012.63
2023-01-09T19:26:06.141Z,100007.53
2023-01-09T19:28:33.072Z,100011.91
2023-01-09T19:30:59.917Z,100017.81
2023-01-09T19:33:27.209Z,100006.72
2023-01-09T19:35:54.155Z,100004.38
2023-01-09T19:38:22.658Z,100020.66
2023-01-09T19:40:49.607Z,100020.09
2023-01-09T19:43:26.190Z,100021.97
2023-01-09T19:45:54.438Z,100038.81
2023-01-09T19:48:22.237Z,100031.41
2023-01-09T19:50:49.000Z,100046.72
2023-01-09T19:53:15.845Z,100044.84
2023-01-09T19:55:42.717Z,100037.53
2023-01-09T19:58:09.591Z,100049.06
2023-01-09T20:00:37.268Z,100054.25
2023-01-09T20:03:04.457Z,100055.09
2023-01-09T20:05:31.329Z,100055.59
2023-01-09T20:07:58.220Z,100057.09
2023-01-09T20:10:25.098Z,100053.13
2023-01-09T20:12:52.053Z,100058.78
2023-01-09T20:15:18.911Z,100058.19
2023-01-09T20:17:45.714Z,100061.28
2023-01-09T20:20:12.635Z,100057.88
2023-01-09T20:22:39.408Z,100061.53
2023-01-09T20:25:10.351Z,100069.19
2023-01-09T20:27:37.260Z,100069.19
2023-01-09T20:30:04.591Z,100068.84
2023-01-09T20:32:32.475Z,100073.81
2023-01-09T20:34:59.476Z,100074.63
2023-01-09T20:37:26.363Z,100077.34
2023-01-09T20:39:53.350Z,100086.78
2023-01-09T20:42:20.172Z,100087.97
2023-01-09T20:44:47.183Z,100093.41
2023-01-09T20:47:14.270Z,100100.63
2023-01-09T20:49:41.103Z,100108.16
2023-01-09T20:52:07.899Z,100121.03
2023-01-09T20:54:35.987Z,100120.91
2023-01-09T20:57:02.940Z,100121.47
2023-01-09T20:59:29.808Z,100125.28
2023-01-09T21:01:56.571Z,100135.28
2023-01-09T21:04:23.510Z,100135.16
2023-01-09T21:06:50.638Z,100144.34
2023-01-09T21:09:17.634Z,100137.63
2023-01-09T21:11:44.495Z,100145.75
2023-01-09T21:14:11.315Z,100144.22
2023-01-09T21:16:38.304Z,100149.53
2023-01-09T21:19:05.115Z,100150.22
2023-01-09T21:21:32.013Z,100154.34
2023-01-09T21:23:59.169Z,100149.41
2023-01-09T21:26:28.371Z,100167.09
2023-01-09T21:28:56.398Z,100168.16
2023-01-09T21:31:25.682Z,100178.28
2023-01-09T21:33:54.540Z,100175.94
2023-01-09T21:36:21.809Z,100175.25
2023-01-09T21:38:48.795Z,100186.09
2023-01-09T21:41:35.526Z,100194.00
2023-01-09T21:44:20.706Z,100196.72
2023-01-09T21:46:53.429Z,100209.44
2023-01-09T21:49:20.707Z,100212.28
2023-01-09T21:51:47.575Z,100205.44
2023-01-09T21:54:14.488Z,100219.72
2023-01-09T21:56:41.311Z,100219.16
2023-01-09T21:59:08.115Z,100230.22
2023-01-09T22:01:35.029Z,100222.09
2023-01-09T22:04:01.966Z,100224.91
2023-01-09T22:06:28.954Z,100232.47
2023-01-09T22:08:56.380Z,100240.41
2023-01-09T22:11:23.399Z,100246.06
2023-01-09T22:13:50.751Z,100249.84
2023-01-09T22:16:17.631Z,100258.31
2023-01-09T22:18:44.564Z,100258.31
2023-01-09T22:21:11.512Z,100247.25
2023-01-09T22:23:38.329Z,100253.03
2023-01-09T22:26:12.293Z,100258.06
2023-01-09T22:28:39.445Z,100257.25
2023-01-09T22:31:10.096Z,100266.22
2023-01-09T22:33:37.270Z,100265.63
2023-01-09T22:36:08.229Z,100270.34
2023-01-09T22:38:35.136Z,100264.09
2023-01-09T22:41:02.066Z,100270.81
2023-01-09T22:43:29.345Z,100272.81
2023-01-09T22:46:03.315Z,100281.44
2023-01-09T22:48:31.926Z,100286.63
2023-01-09T22:51:00.606Z,100284.94
2023-01-09T22:53:28.149Z,100271.66
2023-01-09T22:56:02.838Z,100266.94
2023-01-09T22:58:30.573Z,100270.59
2023-01-09T23:00:57.560Z,100281.91
2023-01-09T23:03:24.453Z,100285.94
2023-01-09T23:06:13.914Z,100302.34
2023-01-09T23:08:41.068Z,100309.41
2023-01-09T23:11:10.409Z,100312.81
2023-01-09T23:13:37.436Z,100305.03
2023-01-09T23:16:04.848Z,100317.78
2023-01-09T23:18:31.686Z,100316.00
2023-01-09T23:21:00.035Z,100317.53
2023-01-09T23:23:27.206Z,100323.22
2023-01-09T23:25:55.709Z,100323.56
2023-01-09T23:28:23.388Z,100319.69
2023-01-09T23:30:50.174Z,100329.25
2023-01-09T23:33:17.205Z,100335.59
2023-01-09T23:35:44.348Z,100322.63
2023-01-09T23:38:14.121Z,100333.94
2023-01-09T23:40:43.863Z,100338.53
2023-01-09T23:43:11.385Z,100326.97
2023-01-09T23:45:42.409Z,100327.19
2023-01-09T23:48:11.009Z,100332.97
2023-01-09T23:50:37.815Z,100343.69
2023-01-09T23:53:04.752Z,100342.38
2023-01-09T23:55:31.555Z,100353.09
2023-01-09T23:57:58.376Z,100362.63
